createdAt,value
2019-02-27T00:00:02.068Z,99.90
2019-02-27T00:04:56.640Z,99.90
2019-02-27T00:09:51.237Z,99.90
2019-02-27T00:14:45.817Z,99.90
2019-02-27T00:19:40.477Z,99.90
2019-02-27T00:24:35.059Z,99.90
2019-02-27T00:29:29.681Z,99.90
2019-02-27T00:34:24.278Z,99.90
2019-02-27T00:39:18.879Z,99.90
2019-02-27T00:44:13.451Z,99.90
2019-02-27T00:49:08.042Z,99.90
2019-02-27T00:54:02.624Z,99.90
2019-02-27T00:58:59.953Z,99.90
2019-02-27T01:03:53.564Z,99.90
2019-02-27T01:08:48.171Z,99.90
2019-02-27T01:13:42.776Z,99.90
2019-02-27T01:18:37.386Z,99.90
2019-02-27T01:23:31.964Z,99.90
2019-02-27T01:28:26.637Z,99.90
2019-02-27T01:33:21.315Z,99.90
2019-02-27T01:38:15.907Z,99.90
2019-02-27T01:43:10.488Z,99.90
2019-02-27T01:48:08.930Z,99.90
2019-02-27T01:53:01.534Z,99.90
2019-02-27T01:57:56.214Z,99.90
2019-02-27T02:02:50.862Z,99.90
2019-02-27T02:07:49.669Z,99.90
2019-02-27T02:12:45.972Z,99.90
2019-02-27T02:17:59.916Z,99.90
2019-02-27T02:23:01.699Z,99.90
2019-02-27T02:28:15.844Z,99.90
2019-02-27T02:33:28.641Z,99.90
2019-02-27T02:38:45.508Z,99.90
2019-02-27T02:44:07.209Z,99.90
2019-02-27T02:49:43.800Z,99.90
2019-02-27T02:54:57.940Z,99.90
2019-02-27T03:00:02.275Z,99.90
2019-02-27T03:05:24.446Z,99.90
2019-02-27T03:10:45.807Z,99.90
2019-02-27T03:16:04.063Z,99.90
2019-02-27T03:21:12.562Z,99.90
2019-02-27T03:26:23.415Z,99.90
2019-02-27T03:31:37.288Z,99.90
2019-02-27T03:37:00.078Z,99.90
2019-02-27T03:42:24.840Z,99.90
2019-02-27T03:47:26.832Z,99.90
2019-02-27T03:52:53.925Z,99.90
2019-02-27T03:57:58.811Z,99.90
2019-02-27T04:03:22.208Z,99.90
2019-02-27T04:08:55.834Z,99.90
2019-02-27T04:13:50.405Z,99.90
2019-02-27T04:18:45.017Z,99.90
2019-02-27T04:23:39.601Z,99.90
2019-02-27T04:28:34.215Z,99.90
2019-02-27T04:33:28.870Z,99.90
2019-02-27T04:38:25.063Z,99.90
2019-02-27T04:43:19.745Z,99.90
2019-02-27T04:48:14.312Z,99.90
2019-02-27T04:53:08.975Z,99.90
2019-02-27T04:58:03.591Z,99.90
2019-02-27T05:02:58.187Z,99.90
2019-02-27T05:07:54.322Z,99.90
2019-02-27T05:12:49.132Z,99.90
2019-02-27T05:17:43.739Z,99.90
2019-02-27T05:22:38.346Z,99.90
2019-02-27T05:27:32.954Z,99.90
2019-02-27T05:32:28.281Z,99.90
2019-02-27T05:37:23.405Z,99.90
2019-02-27T05:42:18.012Z,99.90
2019-02-27T05:47:12.604Z,99.90
2019-02-27T05:52:07.195Z,99.90
2019-02-27T05:57:01.795Z,99.90
2019-02-27T06:01:56.408Z,99.90
2019-02-27T06:06:51.048Z,99.90
2019-02-27T06:11:45.647Z,99.90
2019-02-27T06:16:40.907Z,99.90
2019-02-27T06:21:35.618Z,99.90
2019-02-27T06:26:32.391Z,99.90
2019-02-27T06:31:26.548Z,99.90
2019-02-27T06:36:21.153Z,99.90
2019-02-27T06:41:16.302Z,99.90
2019-02-27T06:46:11.115Z,99.90
2019-02-27T06:51:08.608Z,99.90
2019-02-27T06:56:04.019Z,99.90
2019-02-27T07:00:58.930Z,99.90
2019-02-27T07:05:53.537Z,99.90
2019-02-27T07:10:48.124Z,99.90
2019-02-27T07:15:47.770Z,99.90
2019-02-27T07:20:39.266Z,99.90
2019-02-27T07:25:33.855Z,99.90
2019-02-27T07:30:28.522Z,99.90
2019-02-27T07:35:25.588Z,99.90
2019-02-27T07:40:20.955Z,99.90
2019-02-27T07:45:22.957Z,99.90
2019-02-27T07:50:22.444Z,99.90
2019-02-27T07:55:22.741Z,99.90
2019-02-27T08:00:22.856Z,99.90
2019-02-27T08:05:17.649Z,99.90
2019-02-27T08:10:22.448Z,99.90
2019-02-27T08:15:20.129Z,99.90
2019-02-27T08:20:20.137Z,99.90
2019-02-27T08:25:16.433Z,99.90
2019-02-27T08:30:18.342Z,99.90
2019-02-27T08:35:13.065Z,99.90
2019-02-27T08:40:12.047Z,99.90
2019-02-27T08:45:19.211Z,99.90
2019-02-27T08:50:14.230Z,99.90
2019-02-27T08:55:19.906Z,99.90
2019-02-27T09:00:24.084Z,99.90
2019-02-27T09:05:22.081Z,99.90
2019-02-27T09:10:20.076Z,99.90
2019-02-27T09:15:18.389Z,99.90
2019-02-27T09:20:21.066Z,99.90
2019-02-27T09:25:16.532Z,99.90
2019-02-27T09:30:17.697Z,99.90
2019-02-27T09:35:17.111Z,99.90
2019-02-27T09:40:29.837Z,99.90
2019-02-27T09:45:30.771Z,99.90
2019-02-27T09:50:41.743Z,99.90
2019-02-27T09:55:37.959Z,99.90
2019-02-27T10:00:42.974Z,99.90
2019-02-27T10:05:40.719Z,99.90
2019-02-27T10:10:35.038Z,99.90
2019-02-27T10:15:29.800Z,99.90
2019-02-27T10:20:30.316Z,99.90
2019-02-27T10:25:30.564Z,99.90
2019-02-27T10:30:25.845Z,99.90
2019-02-27T10:35:20.639Z,99.90
2019-02-27T10:40:28.629Z,99.90
2019-02-27T10:45:23.460Z,99.90
2019-02-27T10:50:19.108Z,99.90
2019-02-27T10:55:22.499Z,99.90
2019-02-27T11:00:27.481Z,99.90
2019-02-27T11:05:22.522Z,99.90
2019-02-27T11:10:17.908Z,99.90
2019-02-27T11:15:19.077Z,99.90
2019-02-27T11:20:20.238Z,99.90
2019-02-27T11:25:22.270Z,99.90
2019-02-27T11:30:21.653Z,99.90
2019-02-27T11:35:16.432Z,99.90
2019-02-27T11:40:25.441Z,99.90
2019-02-27T11:45:23.478Z,99.90
2019-02-27T11:50:19.422Z,99.90
2019-02-27T11:55:16.839Z,99.90
2019-02-27T12:00:17.941Z,99.90
2019-02-27T12:05:19.340Z,98.80
2019-02-27T12:10:27.228Z,96.40
2019-02-27T12:15:22.819Z,95.10
2019-02-27T12:20:29.579Z,92.60
2019-02-27T12:25:32.334Z,94.00
2019-02-27T12:30:38.521Z,93.20
2019-02-27T12:35:37.614Z,92.50
2019-02-27T12:40:32.341Z,91.40
2019-02-27T12:45:30.680Z,90.30
2019-02-27T12:50:31.071Z,90.00
2019-02-27T12:55:24.907Z,89.20
2019-02-27T13:00:23.582Z,88.10
2019-02-27T13:05:20.404Z,86.80
2019-02-27T13:10:20.537Z,87.50
2019-02-27T13:15:22.617Z,87.60
2019-02-27T13:20:23.569Z,88.60
2019-02-27T13:25:18.529Z,90.10
2019-02-27T13:30:24.592Z,90.90
2019-02-27T13:35:20.190Z,91.10
2019-02-27T13:40:19.107Z,91.10
2019-02-27T13:45:17.910Z,90.90
2019-02-27T13:50:14.064Z,91.10
2019-02-27T13:55:13.327Z,91.50
2019-02-27T14:00:37.214Z,92.00
2019-02-27T14:05:36.080Z,92.00
2019-02-27T14:10:36.612Z,91.40
2019-02-27T14:15:32.747Z,91.10
2019-02-27T14:20:28.953Z,90.40
2019-02-27T14:25:34.124Z,90.40
2019-02-27T14:30:49.944Z,90.00
2019-02-27T14:35:45.224Z,89.10
2019-02-27T14:40:41.155Z,88.80
2019-02-27T14:45:40.709Z,88.10
2019-02-27T14:50:35.787Z,88.10
2019-02-27T14:55:30.405Z,87.60
2019-02-27T15:00:39.813Z,85.70
2019-02-27T15:05:31.395Z,85.20
2019-02-27T15:10:27.221Z,85.50
2019-02-27T15:15:27.538Z,84.80
2019-02-27T15:20:25.454Z,83.80
2019-02-27T15:25:20.490Z,83.30
2019-02-27T15:30:30.324Z,82.70
2019-02-27T15:35:25.011Z,82.60
2019-02-27T15:40:30.280Z,81.20
2019-02-27T15:45:33.282Z,81.60
2019-02-27T15:50:36.763Z,81.70
2019-02-27T15:55:34.273Z,80.80
2019-02-27T16:00:35.914Z,81.40
2019-02-27T16:05:31.738Z,81.30
2019-02-27T16:10:30.111Z,78.70
2019-02-27T16:15:26.295Z,79.30
2019-02-27T16:20:23.504Z,78.70
2019-02-27T16:25:25.274Z,78.70
2019-02-27T16:30:32.986Z,78.70
2019-02-27T16:35:27.937Z,79.50
2019-02-27T16:40:24.928Z,79.70
2019-02-27T16:45:36.843Z,80.80
2019-02-27T16:50:31.172Z,81.20
2019-02-27T16:55:27.506Z,81.90
2019-02-27T17:00:38.192Z,82.10
2019-02-27T17:05:32.812Z,82.50
2019-02-27T17:10:34.731Z,86.00
2019-02-27T17:15:34.566Z,89.80
2019-02-27T17:20:29.693Z,90.60
2019-02-27T17:25:28.813Z,91.70
2019-02-27T17:30:36.589Z,92.80
2019-02-27T17:35:29.569Z,92.80
2019-02-27T17:40:24.248Z,93.90
2019-02-27T17:45:23.743Z,94.80
2019-02-27T17:50:18.882Z,95.80
2019-02-27T17:55:18.531Z,97.20
2019-02-27T18:00:28.369Z,98.60
2019-02-27T18:05:25.522Z,99.90
2019-02-27T18:10:19.642Z,99.90
2019-02-27T18:15:22.368Z,99.90
2019-02-27T18:20:17.276Z,99.90
2019-02-27T18:25:15.626Z,99.90
2019-02-27T18:30:21.681Z,99.90
2019-02-27T18:35:17.801Z,99.90
2019-02-27T18:40:17.848Z,99.90
2019-02-27T18:45:16.338Z,99.90
2019-02-27T18:50:14.346Z,99.90
2019-02-27T18:55:12.481Z,99.90
2019-02-27T19:00:24.984Z,99.90
2019-02-27T19:05:19.641Z,99.90
2019-02-27T19:10:16.640Z,99.90
2019-02-27T19:15:23.727Z,99.90
2019-02-27T19:20:28.242Z,99.90
2019-02-27T19:25:23.048Z,99.90
2019-02-27T19:30:19.673Z,99.90
2019-02-27T19:35:14.681Z,99.90
2019-02-27T19:40:19.589Z,99.90
2019-02-27T19:45:14.336Z,99.90
2019-02-27T19:50:11.177Z,99.90
2019-02-27T19:55:08.824Z,99.90
2019-02-27T20:00:04.379Z,99.90
2019-02-27T20:04:58.980Z,99.90
2019-02-27T20:09:54.344Z,99.90
2019-02-27T20:14:50.001Z,99.90
2019-02-27T20:19:44.578Z,99.90
2019-02-27T20:24:39.173Z,99.90
2019-02-27T20:29:39.446Z,99.90
2019-02-27T20:34:30.157Z,99.90
2019-02-27T20:39:24.909Z,99.90
2019-02-27T20:44:19.487Z,99.90
2019-02-27T20:49:14.199Z,99.90
2019-02-27T20:54:08.934Z,99.90
2019-02-27T20:59:03.518Z,99.90
2019-02-27T21:04:01.476Z,99.90
2019-02-27T21:08:54.436Z,99.90
2019-02-27T21:13:49.635Z,99.90
2019-02-27T21:18:44.777Z,99.90
2019-02-27T21:23:39.436Z,99.90
2019-02-27T21:28:34.131Z,99.90
2019-02-27T21:33:28.747Z,99.90
2019-02-27T21:38:23.347Z,99.90
2019-02-27T21:43:17.921Z,99.90
2019-02-27T21:48:12.515Z,99.90
2019-02-27T21:53:07.121Z,99.90
2019-02-27T21:58:01.846Z,99.90
2019-02-27T22:03:03.893Z,99.90
2019-02-27T22:07:55.148Z,99.90
2019-02-27T22:12:49.821Z,99.90
2019-02-27T22:17:44.476Z,99.90
2019-02-27T22:22:41.502Z,99.90
2019-02-27T22:27:35.626Z,99.90
2019-02-27T22:32:30.218Z,99.90
2019-02-27T22:37:24.813Z,99.90
2019-02-27T22:42:19.487Z,99.90
2019-02-27T22:47:14.169Z,99.90
2019-02-27T22:52:08.754Z,99.90
2019-02-27T22:57:03.345Z,99.90
2019-02-27T23:01:58.199Z,99.90
2019-02-27T23:06:52.868Z,99.90
2019-02-27T23:11:47.620Z,99.90
2019-02-27T23:16:42.389Z,99.90
2019-02-27T23:21:37.184Z,99.90
2019-02-27T23:26:31.815Z,99.90
2019-02-27T23:31:26.408Z,99.90
2019-02-27T23:36:22.035Z,99.90
2019-02-27T23:41:22.765Z,99.90
2019-02-27T23:46:15.603Z,99.90
2019-02-27T23:51:10.078Z,99.90
2019-02-27T23:56:05.790Z,99.90
